Time;durP1;ratioP1;P1;durP2;ratioP2;P2;SDS_P1;SDS_P2;PMS_P1;PMS_P2;Temp;Humidity;BMP_temperature;BMP_pressure;BME280_temperature;BME280_humidity;BME280_pressure;Samples;Min_cycle;Max_cycle;Signal;HPM_P1;HPM_P2
2023/12/19 00:02:03;;;;;;;9.10;6.17;;;6.20;99.90;;;;;;5073034;28;20190;-71
2023/12/19 00:04:33;;;;;;;7.93;5.33;;;6.20;99.90;;;;;;5073030;28;20159;-70
2023/12/19 00:06:58;;;;;;;6.63;5.10;;;6.30;99.90;;;;;;5073126;28;20158;-71
2023/12/19 00:09:24;;;;;;;12.20;6.50;;;6.30;99.90;;;;;;5072805;28;20976;-72
2023/12/19 00:11:49;;;;;;;9.90;5.97;;;6.30;99.90;;;;;;5073020;28;20213;-71
2023/12/19 00:14:15;;;;;;;7.20;5.47;;;6.30;99.90;;;;;;5072400;28;20162;-70
2023/12/19 00:16:40;;;;;;;6.10;5.13;;;6.30;99.90;;;;;;5073362;28;20245;-71
2023/12/19 00:19:08;;;;;;;8.63;7.30;;;6.30;99.90;;;;;;5073103;28;20170;-71
2023/12/19 00:21:34;;;;;;;8.70;6.33;;;6.30;99.90;;;;;;5072906;28;20182;-70
2023/12/19 00:24:00;;;;;;;13.07;7.33;;;6.40;99.90;;;;;;5072938;28;20454;-71
2023/12/19 00:26:25;;;;;;;10.27;6.43;;;6.30;99.90;;;;;;5073454;28;20404;-70
2023/12/19 00:28:51;;;;;;;9.00;6.83;;;6.30;99.90;;;;;;5073275;28;20212;-72
2023/12/19 00:31:23;;;;;;;8.50;6.77;;;6.30;99.90;;;;;;5072554;28;20194;-71
2023/12/19 00:33:48;;;;;;;13.90;7.70;;;6.30;99.90;;;;;;5073090;28;20892;-71
2023/12/19 00:36:21;;;;;;;11.10;6.80;;;6.20;99.90;;;;;;5073230;28;20419;-71
2023/12/19 00:38:47;;;;;;;11.13;6.80;;;6.20;99.90;;;;;;5073267;28;20169;-71
2023/12/19 00:41:12;;;;;;;11.87;6.90;;;6.10;99.90;;;;;;5073014;28;20511;-71
2023/12/19 00:43:39;;;;;;;9.63;6.93;;;6.10;99.90;;;;;;5072780;28;20162;-70
2023/12/19 00:46:05;;;;;;;6.90;6.10;;;6.10;99.90;;;;;;5072784;28;20265;-71
2023/12/19 00:48:31;;;;;;;10.73;5.87;;;6.20;99.90;;;;;;5072373;28;20815;-72
2023/12/19 00:50:57;;;;;;;6.47;5.20;;;6.20;99.90;;;;;;5072877;28;20255;-71
2023/12/19 00:53:23;;;;;;;6.07;4.87;;;6.20;99.90;;;;;;5072913;28;20795;-71
2023/12/19 00:55:49;;;;;;;7.10;5.63;;;6.30;99.90;;;;;;5072964;28;20196;-72
2023/12/19 00:58:14;;;;;;;6.50;4.50;;;6.30;99.90;;;;;;5072864;28;20491;-71
2023/12/19 01:00:40;;;;;;;5.83;5.17;;;6.20;99.90;;;;;;5072261;28;20166;-70
2023/12/19 01:03:05;;;;;;;10.83;5.73;;;6.20;99.90;;;;;;5072281;28;20166;-71
2023/12/19 01:05:31;;;;;;;8.50;5.33;;;6.30;99.90;;;;;;5072059;28;20163;-71
2023/12/19 01:07:56;;;;;;;8.03;5.37;;;6.30;99.90;;;;;;5072215;28;20537;-70
2023/12/19 01:10:22;;;;;;;8.10;6.53;;;6.40;99.90;;;;;;5072259;28;20172;-71
2023/12/19 01:12:47;;;;;;;11.77;6.53;;;6.30;99.90;;;;;;5071908;28;20689;-71
2023/12/19 01:15:13;;;;;;;11.20;6.07;;;6.30;99.90;;;;;;5072145;28;20162;-71
2023/12/19 01:17:39;;;;;;;10.30;6.10;;;6.20;99.90;;;;;;5072159;28;20165;-71
2023/12/19 01:20:05;;;;;;;7.10;5.43;;;6.10;99.90;;;;;;5072192;28;20197;-70
2023/12/19 01:22:30;;;;;;;8.27;5.83;;;6.20;99.90;;;;;;5071781;28;20200;-71
2023/12/19 01:24:56;;;;;;;6.80;5.20;;;6.20;99.90;;;;;;5072082;28;20496;-71
2023/12/19 01:27:21;;;;;;;10.13;6.03;;;6.20;99.90;;;;;;5072052;28;20175;-72
2023/12/19 01:29:47;;;;;;;6.10;4.50;;;6.20;99.90;;;;;;5071850;28;20181;-71
2023/12/19 01:32:13;;;;;;;12.43;5.83;;;6.30;99.90;;;;;;5072067;28;20712;-70
2023/12/19 01:34:38;;;;;;;8.93;5.40;;;6.30;99.90;;;;;;5071927;28;20166;-70
2023/12/19 01:37:04;;;;;;;8.67;6.07;;;6.40;99.90;;;;;;5071996;28;20535;-72
2023/12/19 01:39:29;;;;;;;8.10;5.57;;;6.40;99.90;;;;;;5071824;28;20265;-72
2023/12/19 01:41:55;;;;;;;9.70;6.10;;;6.40;99.90;;;;;;5071932;28;20738;-72
2023/12/19 01:44:21;;;;;;;7.20;5.90;;;6.30;99.90;;;;;;5071824;28;20178;-70
2023/12/19 01:46:46;;;;;;;6.07;4.57;;;6.30;99.90;;;;;;5071996;28;20174;-71
2023/12/19 01:49:13;;;;;;;10.10;6.47;;;6.30;99.90;;;;;;5072077;28;20593;-71
2023/12/19 01:51:38;;;;;;;9.13;6.40;;;6.20;99.90;;;;;;5071709;28;20460;-72
2023/12/19 01:54:06;;;;;;;7.30;5.30;;;6.30;99.90;;;;;;5071971;28;20462;-72
2023/12/19 01:56:32;;;;;;;11.20;7.30;;;6.20;99.90;;;;;;5072303;28;20579;-71
2023/12/19 01:59:00;;;;;;;9.53;5.97;;;6.10;99.90;;;;;;5072928;28;20404;-71
2023/12/19 02:01:26;;;;;;;10.97;6.50;;;6.10;99.90;;;;;;5075535;28;20501;-71
2023/12/19 02:03:52;;;;;;;7.80;6.17;;;6.10;99.90;;;;;;5076022;28;20439;-71
2023/12/19 02:06:19;;;;;;;9.40;6.07;;;6.10;99.90;;;;;;5074639;28;20424;-71
2023/12/19 02:08:45;;;;;;;6.87;5.13;;;6.00;99.90;;;;;;5075746;28;20170;-72
2023/12/19 02:11:11;;;;;;;7.80;5.80;;;6.10;99.90;;;;;;5075277;28;20819;-71
2023/12/19 02:13:37;;;;;;;11.13;5.80;;;6.00;99.90;;;;;;5075419;28;20166;-71
2023/12/19 02:16:03;;;;;;;8.30;5.63;;;6.00;99.90;;;;;;5075651;28;20435;-72
2023/12/19 02:18:29;;;;;;;6.67;5.97;;;6.00;99.90;;;;;;5075535;28;20400;-72
2023/12/19 02:20:54;;;;;;;7.50;5.20;;;6.00;99.90;;;;;;5075168;28;20666;-71
2023/12/19 02:23:20;;;;;;;8.53;5.97;;;5.90;99.90;;;;;;5075472;28;20174;-70
2023/12/19 02:25:46;;;;;;;7.70;5.93;;;5.90;99.90;;;;;;5075520;28;20404;-71
2023/12/19 02:28:12;;;;;;;8.60;5.80;;;6.00;99.90;;;;;;5074948;28;20175;-70
2023/12/19 02:30:38;;;;;;;7.63;6.17;;;5.90;99.90;;;;;;5074648;28;20412;-70
2023/12/19 02:33:04;;;;;;;8.67;5.60;;;5.90;99.90;;;;;;5074808;28;20415;-71
2023/12/19 02:35:30;;;;;;;10.50;6.33;;;5.80;99.90;;;;;;5074592;28;20178;-71
2023/12/19 02:37:56;;;;;;;11.50;6.63;;;5.80;99.90;;;;;;5074718;28;20170;-71
2023/12/19 02:40:22;;;;;;;8.40;6.40;;;5.90;99.90;;;;;;5074681;28;20915;-72
2023/12/19 02:42:47;;;;;;;8.50;5.10;;;5.90;99.90;;;;;;5074588;28;20190;-71
2023/12/19 02:45:13;;;;;;;7.23;5.67;;;6.00;99.90;;;;;;5074882;28;21044;-71
2023/12/19 02:47:39;;;;;;;10.13;5.60;;;6.00;99.90;;;;;;5073497;28;20170;-71
2023/12/19 02:50:05;;;;;;;11.03;6.20;;;6.10;99.90;;;;;;5074397;28;20247;-71
2023/12/19 02:52:31;;;;;;;6.90;5.27;;;6.00;99.90;;;;;;5074391;28;20339;-71
2023/12/19 02:54:56;;;;;;;8.30;6.33;;;6.00;99.90;;;;;;5074688;28;20440;-71
2023/12/19 02:57:22;;;;;;;8.40;5.83;;;6.00;99.90;;;;;;5074409;28;20220;-71
2023/12/19 02:59:47;;;;;;;7.87;5.63;;;6.00;99.90;;;;;;5074520;28;20693;-71
2023/12/19 03:02:13;;;;;;;10.10;6.80;;;6.00;99.90;;;;;;5074384;28;20194;-72
2023/12/19 03:04:39;;;;;;;8.57;5.80;;;5.90;99.90;;;;;;5074339;28;20174;-70
2023/12/19 03:07:05;;;;;;;8.40;5.23;;;6.00;99.90;;;;;;5074316;28;20223;-70
2023/12/19 03:09:31;;;;;;;5.63;4.63;;;6.00;99.90;;;;;;5074318;28;20253;-72
2023/12/19 03:12:07;;;;;;;5.60;4.37;;;6.00;99.90;;;;;;5073171;28;20535;-70
2023/12/19 03:14:34;;;;;;;9.97;5.67;;;6.00;99.90;;;;;;5074298;28;20166;-71
2023/12/19 03:17:03;;;;;;;7.30;4.83;;;6.00;99.90;;;;;;5074297;28;20899;-71
2023/12/19 03:19:29;;;;;;;11.10;5.17;;;6.10;99.90;;;;;;5073815;28;20470;-70
2023/12/19 03:21:55;;;;;;;8.00;5.20;;;6.10;99.90;;;;;;5074073;28;20605;-71
2023/12/19 03:24:22;;;;;;;7.80;5.60;;;6.20;99.90;;;;;;5074083;28;20408;-71
2023/12/19 03:26:47;;;;;;;6.73;5.50;;;6.20;99.90;;;;;;5073933;28;20166;-71
2023/12/19 03:29:13;;;;;;;6.57;5.20;;;6.30;99.90;;;;;;5073979;28;20465;-71
2023/12/19 03:31:38;;;;;;;6.73;4.70;;;6.30;99.90;;;;;;5073532;28;20233;-70
2023/12/19 03:34:04;;;;;;;7.17;4.60;;;6.30;99.90;;;;;;5073711;28;20166;-71
2023/12/19 03:36:29;;;;;;;7.27;4.90;;;6.40;99.90;;;;;;5072501;28;20176;-70
2023/12/19 03:38:55;;;;;;;5.70;5.00;;;6.50;99.90;;;;;;5073761;28;20162;-71
2023/12/19 03:41:21;;;;;;;7.20;4.67;;;6.60;99.90;;;;;;5073463;28;20201;-70
2023/12/19 03:43:46;;;;;;;5.97;4.33;;;6.60;99.90;;;;;;5073379;28;20187;-71
2023/12/19 03:46:12;;;;;;;6.27;5.00;;;6.60;99.90;;;;;;5073590;28;20518;-71
2023/12/19 03:48:38;;;;;;;6.30;4.27;;;6.60;99.90;;;;;;5073611;28;20657;-70
2023/12/19 03:51:04;;;;;;;6.27;4.27;;;6.50;99.90;;;;;;5073023;28;20562;-70
2023/12/19 03:53:30;;;;;;;7.67;4.90;;;6.60;99.90;;;;;;5071924;28;20814;-70
2023/12/19 03:55:56;;;;;;;6.07;3.70;;;6.50;99.90;;;;;;5073353;28;20454;-71
2023/12/19 03:58:22;;;;;;;6.17;5.10;;;6.60;99.90;;;;;;5073348;28;20166;-71
2023/12/19 04:00:48;;;;;;;5.43;3.83;;;6.70;99.90;;;;;;5073133;28;20740;-71
2023/12/19 04:03:14;;;;;;;5.20;4.03;;;6.70;99.90;;;;;;5073214;28;20241;-70
2023/12/19 04:05:39;;;;;;;5.63;3.57;;;6.80;99.90;;;;;;5073178;28;20459;-70
2023/12/19 04:08:05;;;;;;;6.77;4.27;;;6.90;99.90;;;;;;5073294;28;20173;-71
2023/12/19 04:10:30;;;;;;;5.73;3.70;;;7.00;99.90;;;;;;5072910;28;20166;-71
2023/12/19 04:12:56;;;;;;;4.47;3.30;;;7.00;99.90;;;;;;5072829;28;20198;-71
2023/12/19 04:15:22;;;;;;;5.17;3.27;;;7.00;99.90;;;;;;5073167;28;20170;-71
2023/12/19 04:17:47;;;;;;;3.23;2.90;;;7.10;99.90;;;;;;5072988;28;20625;-70
2023/12/19 04:20:13;;;;;;;4.30;3.60;;;7.20;99.90;;;;;;5072747;28;20166;-71
2023/12/19 04:22:38;;;;;;;5.17;3.10;;;7.20;99.90;;;;;;5072564;28;20651;-71
2023/12/19 04:25:05;;;;;;;4.30;3.60;;;7.20;99.90;;;;;;5072957;28;20594;-71
2023/12/19 04:27:30;;;;;;;3.97;3.23;;;7.10;99.90;;;;;;5072740;28;20170;-71
2023/12/19 04:29:56;;;;;;;3.63;3.27;;;7.10;99.90;;;;;;5072489;28;20430;-71
2023/12/19 04:32:22;;;;;;;3.00;2.70;;;7.00;99.90;;;;;;5072571;28;20194;-71
2023/12/19 04:34:47;;;;;;;4.13;3.00;;;7.00;99.90;;;;;;5072439;28;20404;-70
2023/12/19 04:37:13;;;;;;;3.07;2.73;;;7.10;99.90;;;;;;5072417;28;20706;-71
2023/12/19 04:39:39;;;;;;;3.77;3.37;;;7.00;99.90;;;;;;5072417;28;20166;-71
2023/12/19 04:42:07;;;;;;;3.50;2.60;;;7.00;99.90;;;;;;5072472;28;20284;-71
2023/12/19 04:44:34;;;;;;;3.27;3.00;;;6.90;99.90;;;;;;5072462;28;20220;-71
2023/12/19 04:46:59;;;;;;;2.90;2.47;;;7.00;99.90;;;;;;5072434;28;20472;-72
2023/12/19 04:49:25;;;;;;;3.20;2.40;;;6.90;99.90;;;;;;5072128;28;20458;-71
2023/12/19 04:51:52;;;;;;;3.40;2.77;;;7.00;99.90;;;;;;5072157;28;20680;-71
2023/12/19 04:54:17;;;;;;;2.40;2.00;;;6.90;99.90;;;;;;5072264;28;20716;-71
2023/12/19 04:56:43;;;;;;;3.60;2.20;;;6.90;99.90;;;;;;5072310;28;20400;-71
2023/12/19 04:59:09;;;;;;;3.43;2.50;;;6.80;99.90;;;;;;5072344;28;20701;-71
2023/12/19 05:01:36;;;;;;;3.43;2.70;;;6.90;99.90;;;;;;5070716;28;20197;-70
2023/12/19 05:04:01;;;;;;;3.50;2.70;;;7.00;99.90;;;;;;5071992;28;20209;-71
2023/12/19 05:06:27;;;;;;;4.23;2.83;;;6.90;99.90;;;;;;5072171;28;20450;-71
2023/12/19 05:08:52;;;;;;;4.20;3.30;;;6.90;99.90;;;;;;5072140;28;20167;-70
2023/12/19 05:11:18;;;;;;;3.00;2.40;;;6.90;99.90;;;;;;5071761;28;20568;-71
2023/12/19 05:13:43;;;;;;;2.80;2.30;;;7.00;99.90;;;;;;5071912;28;20162;-71
2023/12/19 05:16:16;;;;;;;2.43;2.00;;;7.00;99.90;;;;;;5071933;28;20223;-70
2023/12/19 05:18:42;;;;;;;3.77;1.70;;;7.10;99.90;;;;;;5072012;28;20190;-72
2023/12/19 05:21:09;;;;;;;3.27;2.00;;;7.10;99.90;;;;;;5071649;28;20434;-71
2023/12/19 05:23:36;;;;;;;2.20;1.83;;;7.00;99.90;;;;;;5072055;28;20911;-70
2023/12/19 05:26:02;;;;;;;2.50;1.73;;;7.10;99.90;;;;;;5072177;28;20416;-71
2023/12/19 05:28:28;;;;;;;2.07;1.87;;;7.20;99.90;;;;;;5071738;28;20442;-71
2023/12/19 05:30:56;;;;;;;2.13;1.93;;;7.20;99.90;;;;;;5071465;28;20404;-71
2023/12/19 05:33:27;;;;;;;3.70;2.27;;;7.20;99.90;;;;;;5072027;28;20165;-71
2023/12/19 05:35:53;;;;;;;2.00;1.87;;;7.30;99.90;;;;;;5075998;28;20487;-71
2023/12/19 05:38:19;;;;;;;2.07;1.90;;;7.20;99.90;;;;;;5075879;28;20465;-72
2023/12/19 05:40:44;;;;;;;2.43;2.10;;;7.30;99.90;;;;;;5075605;28;20400;-72
2023/12/19 05:43:10;;;;;;;2.23;2.03;;;7.40;99.90;;;;;;5075785;28;20158;-71
2023/12/19 05:45:36;;;;;;;1.97;1.77;;;7.40;99.90;;;;;;5075835;28;20401;-71
2023/12/19 05:48:01;;;;;;;2.70;1.87;;;7.30;99.90;;;;;;5075360;28;20159;-70
2023/12/19 05:50:27;;;;;;;1.97;1.77;;;7.50;99.90;;;;;;5075397;28;20155;-71
2023/12/19 05:52:52;;;;;;;2.50;1.50;;;7.50;99.90;;;;;;5075322;28;20551;-72
2023/12/19 05:55:20;;;;;;;2.33;2.13;;;7.50;99.90;;;;;;5075559;28;20170;-72
2023/12/19 05:57:46;;;;;;;2.30;2.00;;;7.60;99.90;;;;;;5075325;28;20216;-72
2023/12/19 06:00:12;;;;;;;3.80;2.07;;;7.50;99.90;;;;;;5075198;28;20392;-71
2023/12/19 06:02:38;;;;;;;3.40;2.30;;;7.50;99.90;;;;;;5075043;28;20269;-71
2023/12/19 06:05:07;;;;;;;2.50;2.30;;;7.50;99.90;;;;;;5075075;28;20492;-71
2023/12/19 06:07:35;;;;;;;3.43;2.00;;;7.40;99.90;;;;;;5074170;28;20174;-71
2023/12/19 06:10:02;;;;;;;2.40;2.20;;;7.50;99.90;;;;;;5075107;28;20491;-71
2023/12/19 06:12:28;;;;;;;3.30;2.07;;;7.50;99.90;;;;;;5075028;28;20455;-71
2023/12/19 06:14:54;;;;;;;2.70;1.50;;;7.50;99.90;;;;;;5075158;28;20410;-71
2023/12/19 06:17:19;;;;;;;2.53;2.10;;;7.60;99.90;;;;;;5075091;28;20170;-70
2023/12/19 06:19:45;;;;;;;3.00;2.23;;;7.60;99.90;;;;;;5074834;28;20169;-72
2023/12/19 06:22:10;;;;;;;2.10;1.90;;;7.60;99.90;;;;;;5074948;28;20182;-71
2023/12/19 06:24:36;;;;;;;2.90;2.60;;;7.50;99.90;;;;;;5075182;28;20216;-70
2023/12/19 06:27:01;;;;;;;2.23;2.00;;;7.50;99.90;;;;;;5075019;28;20166;-72
2023/12/19 06:29:27;;;;;;;2.53;1.67;;;7.50;99.90;;;;;;5074691;28;20166;-71
2023/12/19 06:31:52;;;;;;;2.90;2.17;;;7.50;99.90;;;;;;5074638;28;20273;-71
2023/12/19 06:34:18;;;;;;;3.10;2.10;;;7.50;99.90;;;;;;5074776;28;20641;-71
2023/12/19 06:36:44;;;;;;;2.37;1.80;;;7.50;99.90;;;;;;5074772;28;20175;-71
2023/12/19 06:39:10;;;;;;;2.03;1.70;;;7.70;99.90;;;;;;5074660;28;20653;-70
2023/12/19 06:41:36;;;;;;;1.50;1.40;;;7.70;99.90;;;;;;5074379;28;20544;-71
2023/12/19 06:44:02;;;;;;;1.47;1.30;;;7.70;99.90;;;;;;5074531;28;20166;-71
2023/12/19 06:46:27;;;;;;;1.30;1.13;;;7.70;99.90;;;;;;5073124;28;20419;-72
2023/12/19 06:48:53;;;;;;;1.40;1.17;;;7.70;99.90;;;;;;5074471;28;20645;-71
2023/12/19 06:51:26;;;;;;;1.90;1.30;;;7.70;99.90;;;;;;5074131;28;20210;-70
2023/12/19 06:53:54;;;;;;;1.23;1.13;;;7.70;99.90;;;;;;5074274;28;20178;-71
2023/12/19 06:56:19;;;;;;;1.57;1.20;;;7.80;99.90;;;;;;5074352;28;20417;-71
2023/12/19 06:58:45;;;;;;;2.10;1.50;;;7.80;99.90;;;;;;5074332;28;20888;-70
2023/12/19 07:01:10;;;;;;;2.00;1.17;;;7.90;99.90;;;;;;5073894;28;20209;-70
2023/12/19 07:03:36;;;;;;;1.30;1.00;;;7.90;99.90;;;;;;5074215;28;20189;-70
2023/12/19 07:06:02;;;;;;;1.30;1.20;;;7.90;99.90;;;;;;5074166;28;20169;-71
2023/12/19 07:08:32;;;;;;;1.50;1.30;;;8.00;99.90;;;;;;5074140;28;20710;-71
2023/12/19 07:10:57;;;;;;;1.80;1.40;;;8.10;99.90;;;;;;5073723;28;20419;-71
2023/12/19 07:13:23;;;;;;;1.40;1.23;;;8.20;99.90;;;;;;5074031;28;20397;-70
2023/12/19 07:15:48;;;;;;;1.63;1.37;;;8.20;99.90;;;;;;5073850;28;20660;-71
2023/12/19 07:18:14;;;;;;;2.57;1.27;;;8.30;99.90;;;;;;5074035;28;20167;-70
2023/12/19 07:20:39;;;;;;;2.57;1.50;;;8.30;99.90;;;;;;5073763;28;20200;-71
2023/12/19 07:23:05;;;;;;;1.80;1.60;;;8.40;99.90;;;;;;5073796;28;20657;-70
2023/12/19 07:25:30;;;;;;;1.40;1.20;;;8.40;99.90;;;;;;5073832;28;20162;-70
2023/12/19 07:27:56;;;;;;;1.17;1.07;;;8.40;99.90;;;;;;5072491;28;20683;-71
2023/12/19 07:30:22;;;;;;;3.03;1.30;;;8.40;99.90;;;;;;5073681;28;20158;-71
2023/12/19 07:32:50;;;;;;;1.23;1.13;;;8.20;99.90;;;;;;5073469;28;20452;-70
2023/12/19 07:35:19;;;;;;;1.90;1.30;;;8.20;99.90;;;;;;5073598;28;20590;-71
2023/12/19 07:37:45;;;;;;;1.10;0.97;;;8.20;99.90;;;;;;5073702;28;20412;-70
2023/12/19 07:40:11;;;;;;;1.10;1.00;;;8.30;99.90;;;;;;5073481;28;20396;-71
2023/12/19 07:42:37;;;;;;;1.33;1.10;;;8.30;99.90;;;;;;5073319;28;20794;-71
2023/12/19 07:45:03;;;;;;;1.33;1.10;;;8.30;99.90;;;;;;5073357;28;20487;-70
2023/12/19 07:47:29;;;;;;;1.87;0.93;;;8.40;99.90;;;;;;5073375;28;20166;-70
2023/12/19 07:49:54;;;;;;;1.30;1.00;;;8.40;99.90;;;;;;5073179;28;20401;-71
2023/12/19 07:52:20;;;;;;;3.00;0.97;;;8.30;99.90;;;;;;5073306;28;20315;-70
2023/12/19 07:54:45;;;;;;;4.00;1.87;;;8.30;99.90;;;;;;5073273;28;20209;-70
2023/12/19 07:57:11;;;;;;;1.30;1.00;;;8.10;99.90;;;;;;5072796;28;20197;-71
2023/12/19 07:59:36;;;;;;;1.40;1.20;;;8.10;99.90;;;;;;5073029;28;20265;-70
2023/12/19 08:02:02;;;;;;;1.50;1.30;;;8.00;99.90;;;;;;5073336;28;20680;-70
2023/12/19 08:04:27;;;;;;;1.37;1.20;;;8.10;99.90;;;;;;5073152;28;20256;-71
2023/12/19 08:06:53;;;;;;;2.60;1.50;;;8.10;99.90;;;;;;5073125;28;20223;-71
2023/12/19 08:09:18;;;;;;;2.70;1.23;;;8.20;99.90;;;;;;5073071;28;20259;-71
2023/12/19 08:11:44;;;;;;;1.67;1.23;;;8.20;99.90;;;;;;5072607;28;20680;-70
2023/12/19 08:14:09;;;;;;;4.10;1.67;;;8.20;99.90;;;;;;5072696;28;20173;-70
2023/12/19 08:16:35;;;;;;;1.80;1.40;;;8.20;99.90;;;;;;5072790;28;20162;-70
2023/12/19 08:19:01;;;;;;;1.20;1.10;;;8.20;99.90;;;;;;5072788;28;20633;-71
2023/12/19 08:21:26;;;;;;;3.27;1.60;;;8.20;99.90;;;;;;5072461;28;20428;-71
2023/12/19 08:23:52;;;;;;;1.67;1.57;;;8.20;99.90;;;;;;5072585;28;20177;-70
2023/12/19 08:26:18;;;;;;;1.30;1.10;;;8.30;99.90;;;;;;5072582;28;20567;-69
2023/12/19 08:28:43;;;;;;;2.93;2.07;;;8.50;99.90;;;;;;5072480;28;20170;-71
2023/12/19 08:31:09;;;;;;;1.67;1.30;;;8.40;99.90;;;;;;5072347;28;20194;-71
2023/12/19 08:33:35;;;;;;;2.30;1.90;;;8.50;99.90;;;;;;5072400;28;20170;-71
2023/12/19 08:36:00;;;;;;;1.73;1.60;;;8.50;99.90;;;;;;5072549;28;20401;-71
2023/12/19 08:38:26;;;;;;;2.90;1.90;;;8.50;99.90;;;;;;5072475;28;20193;-71
2023/12/19 08:40:51;;;;;;;2.43;1.23;;;8.60;99.90;;;;;;5072128;28;20169;-71
2023/12/19 08:43:19;;;;;;;1.57;1.30;;;8.60;99.90;;;;;;5072212;28;20440;-71
2023/12/19 08:45:45;;;;;;;4.17;1.60;;;8.70;99.90;;;;;;5072354;28;20155;-71
2023/12/19 08:48:12;;;;;;;1.60;1.20;;;8.80;99.90;;;;;;5072216;28;20428;-71
2023/12/19 08:50:37;;;;;;;1.77;1.43;;;8.90;99.90;;;;;;5072193;28;20463;-71
2023/12/19 08:53:05;;;;;;;5.10;1.97;;;8.90;99.90;;;;;;5071825;28;20456;-71
2023/12/19 08:55:30;;;;;;;2.17;1.70;;;9.00;99.90;;;;;;5072148;28;20173;-71
2023/12/19 08:57:56;;;;;;;2.87;1.53;;;9.00;99.90;;;;;;5070708;28;20503;-69
2023/12/19 09:00:22;;;;;;;3.53;1.80;;;9.00;99.90;;;;;;5071978;28;20184;-70
2023/12/19 09:02:48;;;;;;;2.23;1.90;;;9.00;99.90;;;;;;5072038;28;20424;-71
2023/12/19 09:05:18;;;;;;;2.03;1.30;;;8.90;99.90;;;;;;5072076;28;20166;-71
2023/12/19 09:07:46;;;;;;;2.80;1.90;;;8.90;99.90;;;;;;5071821;28;20166;-71
2023/12/19 09:10:12;;;;;;;2.20;1.80;;;8.90;99.90;;;;;;5071425;28;21000;-71
2023/12/19 09:12:38;;;;;;;3.53;1.63;;;8.80;99.90;;;;;;5071833;28;20452;-71
2023/12/19 09:15:06;;;;;;;2.47;1.83;;;8.70;99.90;;;;;;5072011;28;20746;-71
2023/12/19 09:17:31;;;;;;;2.20;1.47;;;8.60;99.90;;;;;;5072005;28;20158;-70
2023/12/19 09:19:58;;;;;;;1.67;1.37;;;8.60;99.90;;;;;;5071715;28;20495;-70
2023/12/19 09:22:25;;;;;;;2.40;1.63;;;8.60;99.90;;;;;;5071708;28;20209;-70
2023/12/19 09:24:51;;;;;;;3.40;1.70;;;8.60;99.90;;;;;;5071774;28;20922;-70
2023/12/19 09:27:16;;;;;;;3.60;1.40;;;8.70;99.90;;;;;;5071741;28;20427;-70
2023/12/19 09:29:42;;;;;;;5.50;1.97;;;8.70;99.90;;;;;;5071678;28;20170;-71
2023/12/19 09:32:08;;;;;;;1.77;1.50;;;8.60;99.90;;;;;;5071669;28;20230;-71
2023/12/19 09:34:34;;;;;;;1.87;1.60;;;8.70;99.90;;;;;;5071719;28;20528;-70
2023/12/19 09:36:59;;;;;;;13.20;1.83;;;8.80;99.90;;;;;;5071850;28;20591;-70
2023/12/19 09:39:25;;;;;;;2.10;1.53;;;8.80;99.90;;;;;;5071678;28;20436;-70
2023/12/19 09:41:51;;;;;;;2.40;1.50;;;8.90;99.90;;;;;;5071982;28;20276;-70
2023/12/19 09:44:17;;;;;;;1.67;1.57;;;8.90;99.90;;;;;;5071667;28;20452;-71
2023/12/19 09:46:47;;;;;;;2.30;1.10;;;9.10;99.90;;;;;;5071662;28;20162;-71
2023/12/19 09:49:13;;;;;;;14.93;2.13;;;9.20;99.90;;;;;;5071652;28;20400;-71
2023/12/19 09:51:42;;;;;;;1.87;1.30;;;9.20;99.90;;;;;;5071288;28;20846;-70
2023/12/19 09:54:09;;;;;;;2.13;1.50;;;9.30;99.90;;;;;;5071374;28;20424;-71
2023/12/19 09:56:34;;;;;;;3.00;1.73;;;9.30;99.90;;;;;;5071481;28;20400;-71
2023/12/19 09:59:03;;;;;;;2.23;1.20;;;9.40;99.90;;;;;;5071508;28;20809;-71
2023/12/19 10:01:29;;;;;;;2.03;1.53;;;9.50;99.90;;;;;;5071335;28;20190;-72
2023/12/19 10:03:55;;;;;;;3.13;1.43;;;9.40;99.90;;;;;;5071333;28;21021;-72
2023/12/19 10:06:22;;;;;;;1.60;1.30;;;9.50;99.90;;;;;;5071437;28;20210;-72
2023/12/19 10:08:52;;;;;;;1.50;1.40;;;9.40;99.90;;;;;;5071308;28;20462;-71
2023/12/19 10:11:18;;;;;;;4.13;1.23;;;9.60;99.90;;;;;;5070966;28;20456;-70
2023/12/19 10:13:45;;;;;;;2.13;1.47;;;9.50;99.90;;;;;;5071386;28;20807;-71
2023/12/19 10:16:11;;;;;;;4.27;1.60;;;9.50;99.90;;;;;;5071370;28;20414;-71
2023/12/19 10:18:38;;;;;;;3.83;1.40;;;9.50;99.90;;;;;;5071281;28;20491;-71
2023/12/19 10:21:08;;;;;;;1.50;1.40;;;9.50;99.90;;;;;;5073805;28;20229;-70
2023/12/19 10:23:43;;;;;;;3.27;1.30;;;9.60;99.90;;;;;;5074797;28;20424;-70
2023/12/19 10:26:10;;;;;;;4.07;1.60;;;9.50;99.90;;;;;;5074884;28;20404;-71
2023/12/19 10:28:37;;;;;;;1.97;1.37;;;9.40;99.90;;;;;;5073604;28;20439;-71
2023/12/19 10:31:06;;;;;;;2.70;1.20;;;9.40;99.90;;;;;;5074507;28;20420;-71
2023/12/19 10:33:43;;;;;;;3.03;1.47;;;9.40;99.90;;;;;;5074707;28;20409;-71
2023/12/19 10:36:26;;;;;;;4.27;1.37;;;9.30;99.90;;;;;;5074686;28;20407;-70
2023/12/19 10:38:53;;;;;;;2.10;1.27;;;9.20;99.90;;;;;;5074738;28;20403;-70
2023/12/19 10:41:25;;;;;;;1.30;1.20;;;9.20;99.90;;;;;;5074353;28;20424;-71
2023/12/19 10:43:55;;;;;;;1.80;1.50;;;9.30;99.90;;;;;;5074531;28;20416;-71
2023/12/19 10:46:24;;;;;;;1.63;1.10;;;9.20;99.90;;;;;;5074494;28;20412;-71
2023/12/19 10:49:04;;;;;;;7.53;1.70;;;9.20;99.90;;;;;;5074816;28;20888;-70
2023/12/19 10:51:41;;;;;;;1.50;1.40;;;9.10;99.90;;;;;;5074209;28;20495;-70
2023/12/19 10:54:08;;;;;;;10.80;1.50;;;9.10;99.90;;;;;;5074204;28;20473;-71
2023/12/19 10:57:00;;;;;;;6.00;1.90;;;9.10;99.90;;;;;;5074251;28;20469;-71
2023/12/19 10:59:30;;;;;;;6.80;1.50;;;9.20;99.90;;;;;;5074375;28;20752;-71
2023/12/19 11:02:03;;;;;;;3.27;1.93;;;9.10;99.90;;;;;;5074212;28;20503;-71
2023/12/19 11:04:32;;;;;;;2.17;1.40;;;9.20;99.90;;;;;;5074246;28;20423;-70
2023/12/19 11:07:02;;;;;;;2.93;1.50;;;9.20;99.90;;;;;;5074166;28;20443;-71
2023/12/19 11:09:34;;;;;;;5.13;1.43;;;9.30;99.90;;;;;;5073932;28;20900;-71
2023/12/19 11:12:00;;;;;;;3.73;1.43;;;9.30;99.90;;;;;;5073887;28;20819;-71
2023/12/19 11:14:26;;;;;;;5.27;1.83;;;9.30;99.90;;;;;;5073947;28;20481;-70
2023/12/19 11:16:57;;;;;;;3.97;1.87;;;9.20;99.90;;;;;;5072531;28;20823;-70
2023/12/19 11:19:32;;;;;;;1.87;1.27;;;9.30;99.90;;;;;;5074073;28;20930;-70
2023/12/19 11:22:16;;;;;;;4.50;1.80;;;9.40;99.90;;;;;;5073617;28;20978;-71
2023/12/19 11:24:54;;;;;;;3.00;1.20;;;9.40;99.90;;;;;;5073735;28;20903;-71
2023/12/19 11:27:25;;;;;;;7.03;2.10;;;9.50;99.90;;;;;;5070697;28;20408;-71
2023/12/19 11:29:53;;;;;;;2.97;1.80;;;9.40;99.90;;;;;;5073462;28;20436;-71
2023/12/19 11:32:31;;;;;;;2.13;1.50;;;9.40;99.90;;;;;;5068761;28;20483;-70
2023/12/19 11:35:06;;;;;;;3.80;1.47;;;9.50;99.90;;;;;;5063224;28;20406;-72
2023/12/19 11:37:32;;;;;;;4.73;1.63;;;9.60;99.90;;;;;;5073540;28;20436;-71
2023/12/19 11:39:58;;;;;;;1.80;1.33;;;9.70;99.90;;;;;;5073185;28;20400;-71
2023/12/19 11:42:38;;;;;;;2.17;1.33;;;9.80;99.90;;;;;;5073305;28;20269;-71
2023/12/19 11:45:16;;;;;;;6.50;1.40;;;9.80;99.90;;;;;;5073692;28;20213;-71
2023/12/19 11:47:42;;;;;;;6.83;1.57;;;10.00;99.90;;;;;;5073446;28;20411;-71
2023/12/19 11:50:07;;;;;;;3.63;1.47;;;10.00;99.90;;;;;;5073229;28;20400;-71
2023/12/19 11:52:37;;;;;;;3.57;1.07;;;10.10;99.90;;;;;;5072935;28;20580;-70
2023/12/19 11:55:05;;;;;;;2.50;1.57;;;10.20;99.90;;;;;;5073287;28;20163;-71
2023/12/19 11:57:31;;;;;;;3.57;1.80;;;10.40;99.90;;;;;;5073176;28;20470;-71
2023/12/19 11:59:57;;;;;;;5.10;1.87;;;10.50;99.90;;;;;;5072975;28;20457;-72
2023/12/19 12:02:34;;;;;;;1.40;1.00;;;10.60;99.90;;;;;;5072979;28;20432;-71
2023/12/19 12:05:16;;;;;;;4.83;1.43;;;10.60;99.90;;;;;;5073046;28;20166;-71
2023/12/19 12:07:49;;;;;;;1.23;1.13;;;10.60;99.90;;;;;;5073152;28;20907;-71
2023/12/19 12:10:23;;;;;;;1.57;1.30;;;10.70;99.90;;;;;;5073112;28;20908;-71
2023/12/19 12:12:49;;;;;;;3.90;1.60;;;10.70;99.90;;;;;;5071200;28;20455;-71
2023/12/19 12:15:19;;;;;;;2.07;1.30;;;10.50;99.90;;;;;;5072762;28;20411;-71
2023/12/19 12:17:45;;;;;;;2.17;1.40;;;10.60;99.90;;;;;;5072776;28;20405;-71
2023/12/19 12:20:11;;;;;;;3.10;1.60;;;10.70;99.90;;;;;;5072357;28;20400;-70
2023/12/19 12:22:37;;;;;;;2.27;1.83;;;10.80;99.90;;;;;;5072369;28;20475;-71
2023/12/19 12:25:03;;;;;;;1.97;1.23;;;10.80;99.90;;;;;;5071147;28;20444;-71
2023/12/19 12:27:28;;;;;;;7.60;2.07;;;10.70;99.90;;;;;;5066877;28;20178;-71
2023/12/19 12:29:55;;;;;;;2.77;1.23;;;10.80;99.90;;;;;;5060315;28;20475;-71
2023/12/19 12:32:22;;;;;;;7.13;1.43;;;10.90;99.90;;;;;;5066621;28;20297;-70
2023/12/19 12:34:47;;;;;;;1.70;1.37;;;10.90;99.90;;;;;;5064714;28;20760;-71
2023/12/19 12:37:17;;;;;;;6.93;1.67;;;10.80;99.90;;;;;;5072109;28;20420;-71
2023/12/19 12:39:43;;;;;;;2.07;1.40;;;10.80;99.90;;;;;;5072070;28;20209;-70
2023/12/19 12:42:08;;;;;;;4.60;1.50;;;10.90;99.90;;;;;;5071966;28;20774;-71
2023/12/19 12:44:34;;;;;;;4.10;1.07;;;10.90;99.90;;;;;;5072015;28;20416;-70
2023/12/19 12:47:00;;;;;;;2.30;1.10;;;10.80;99.90;;;;;;5071988;28;20174;-71
2023/12/19 12:49:26;;;;;;;2.50;1.10;;;10.80;99.90;;;;;;5072024;28;20167;-71
2023/12/19 12:51:56;;;;;;;2.07;1.50;;;10.90;99.90;;;;;;5071557;28;20951;-71
2023/12/19 12:54:22;;;;;;;5.80;2.23;;;11.00;99.90;;;;;;5071815;28;20528;-71